createdAt,value
2022-11-24T00:01:16.506Z,84.84
2022-11-24T00:03:44.770Z,84.76
2022-11-24T00:06:15.394Z,85.46
2022-11-24T00:08:45.011Z,86.50
2022-11-24T00:11:18.703Z,86.18
2022-11-24T00:13:46.365Z,85.35
2022-11-24T00:16:20.129Z,85.67
2022-11-24T00:18:49.483Z,87.20
2022-11-24T00:21:17.545Z,87.60
2022-11-24T00:23:47.966Z,87.02
2022-11-24T00:26:17.678Z,85.59
2022-11-24T00:28:45.953Z,85.45
2022-11-24T00:31:27.701Z,85.38
2022-11-24T00:33:57.152Z,86.33
2022-11-24T00:36:26.566Z,86.49
2022-11-24T00:38:55.448Z,85.40
2022-11-24T00:41:24.129Z,84.61
2022-11-24T00:43:52.198Z,84.92
2022-11-24T00:46:20.577Z,85.29
2022-11-24T00:48:48.164Z,86.19
2022-11-24T00:51:16.520Z,86.55
2022-11-24T00:53:44.801Z,85.43
2022-11-24T00:56:12.865Z,84.47
2022-11-24T00:58:40.216Z,84.68
2022-11-24T01:01:10.767Z,85.58
2022-11-24T01:03:38.721Z,86.69
2022-11-24T01:06:07.705Z,87.37
2022-11-24T01:08:37.521Z,86.34
2022-11-24T01:11:18.494Z,85.42
2022-11-24T01:13:48.098Z,85.40
2022-11-24T01:16:20.833Z,86.00
2022-11-24T01:18:48.641Z,86.99
2022-11-24T01:21:18.554Z,87.39
2022-11-24T01:23:46.532Z,85.75
2022-11-24T01:26:16.750Z,84.77
2022-11-24T01:28:47.457Z,84.82
2022-11-24T01:31:16.859Z,85.95
2022-11-24T01:33:44.338Z,86.80
2022-11-24T01:36:12.001Z,87.52
2022-11-24T01:38:41.817Z,86.20
2022-11-24T01:41:17.242Z,84.56
2022-11-24T01:43:45.531Z,84.08
2022-11-24T01:46:15.491Z,85.33
2022-11-24T01:48:46.792Z,86.02
2022-11-24T01:51:17.628Z,86.83
2022-11-24T01:53:49.079Z,86.48
2022-11-24T01:56:16.639Z,85.14
2022-11-24T01:58:44.095Z,84.51
2022-11-24T02:01:13.785Z,85.07
2022-11-24T02:03:43.074Z,86.30
2022-11-24T02:06:22.956Z,86.75
2022-11-24T02:09:02.492Z,85.57
2022-11-24T02:11:34.974Z,84.45
2022-11-24T02:14:03.781Z,84.26
2022-11-24T02:16:33.565Z,84.65
2022-11-24T02:19:06.551Z,85.22
2022-11-24T02:21:34.008Z,86.26
2022-11-24T02:24:56.349Z,85.24
2022-11-24T02:27:23.706Z,83.84
2022-11-24T02:29:51.368Z,84.10
2022-11-24T02:32:19.128Z,84.81
2022-11-24T02:34:46.587Z,86.16
2022-11-24T02:37:15.375Z,87.02
2022-11-24T02:39:42.932Z,86.94
2022-11-24T02:42:11.721Z,85.37
2022-11-24T02:44:41.952Z,84.55
2022-11-24T02:47:10.321Z,84.52
2022-11-24T02:49:39.315Z,85.34
2022-11-24T02:52:21.110Z,86.34
2022-11-24T02:54:48.873Z,86.68
2022-11-24T02:57:19.807Z,85.72
2022-11-24T02:59:47.267Z,84.62
2022-11-24T03:02:15.189Z,84.38
2022-11-24T03:04:44.452Z,85.09
2022-11-24T03:07:12.412Z,85.92
2022-11-24T03:09:40.061Z,86.62
2022-11-24T03:12:07.741Z,86.24
2022-11-24T03:14:35.720Z,84.93
2022-11-24T03:17:03.973Z,84.41
2022-11-24T03:19:32.967Z,84.81
2022-11-24T03:22:00.522Z,86.15
2022-11-24T03:24:28.080Z,86.81
2022-11-24T03:26:55.841Z,87.27
2022-11-24T03:29:23.299Z,86.41
2022-11-24T03:31:51.372Z,85.35
2022-11-24T03:34:19.031Z,85.24
2022-11-24T03:36:46.592Z,85.55
2022-11-24T03:39:18.042Z,86.29
2022-11-24T03:41:46.117Z,87.17
2022-11-24T03:44:13.570Z,86.88
2022-11-24T03:46:41.374Z,85.41
2022-11-24T03:49:09.717Z,84.17
2022-11-24T03:51:37.691Z,84.69
2022-11-24T03:54:06.674Z,85.56
2022-11-24T03:56:34.027Z,86.28
2022-11-24T03:59:02.000Z,86.79
2022-11-24T04:01:32.270Z,86.76
2022-11-24T04:03:59.981Z,84.88
2022-11-24T04:06:27.555Z,83.95
2022-11-24T04:08:55.099Z,84.40
2022-11-24T04:11:41.506Z,84.92
2022-11-24T04:14:13.373Z,85.60
2022-11-24T04:16:41.853Z,86.62
2022-11-24T04:19:09.504Z,86.71
2022-11-24T04:21:37.371Z,85.41
2022-11-24T04:24:05.647Z,84.02
2022-11-24T04:26:33.919Z,83.69
2022-11-24T04:29:01.274Z,84.27
2022-11-24T04:31:29.382Z,85.06
2022-11-24T04:33:57.007Z,86.75
2022-11-24T04:36:24.467Z,88.21
2022-11-24T04:39:26.035Z,86.67
2022-11-24T04:41:42.416Z,85.49
2022-11-24T04:44:10.077Z,85.15
2022-11-24T04:46:37.718Z,85.40
2022-11-24T04:49:05.503Z,86.20
2022-11-24T04:51:33.167Z,87.14
2022-11-24T04:54:00.428Z,87.21
2022-11-24T04:56:27.977Z,85.57
2022-11-24T04:58:55.737Z,83.99
2022-11-24T05:01:23.344Z,84.13
2022-11-24T05:03:54.471Z,84.63
2022-11-24T05:06:22.414Z,85.36
2022-11-24T05:08:50.682Z,86.34
2022-11-24T05:11:19.474Z,87.30
2022-11-24T05:13:47.449Z,87.43
2022-11-24T05:16:15.576Z,85.55
2022-11-24T05:18:43.166Z,84.27
2022-11-24T05:21:10.626Z,84.12
2022-11-24T05:23:39.934Z,84.87
2022-11-24T05:26:07.585Z,86.08
2022-11-24T05:28:35.043Z,86.93
2022-11-24T05:31:03.939Z,86.68
2022-11-24T05:33:33.043Z,85.26
2022-11-24T05:36:01.407Z,84.24
2022-11-24T05:38:29.990Z,84.10
2022-11-24T05:41:02.064Z,84.63
2022-11-24T10:11:27.626Z,88.04
2022-11-24T10:14:13.690Z,87.60
2022-11-24T10:20:30.864Z,81.75
2022-11-24T10:23:12.125Z,81.61
2022-11-24T10:25:59.751Z,81.46
2022-11-24T10:28:43.789Z,82.18
2022-11-24T10:31:34.418Z,83.99
2022-11-24T10:34:17.102Z,81.20
2022-11-24T10:36:56.848Z,76.78
2022-11-24T10:39:39.464Z,77.03
2022-11-24T10:42:25.860Z,78.01
2022-11-24T10:45:18.201Z,80.36
2022-11-24T10:47:46.684Z,80.14
2022-11-24T10:50:44.244Z,79.51
2022-11-24T10:57:50.284Z,78.42
2022-11-24T11:00:20.404Z,76.44
2022-11-24T11:02:48.757Z,77.73
2022-11-24T11:05:33.341Z,78.91
2022-11-24T11:08:14.621Z,79.97
2022-11-24T11:10:44.915Z,82.44
2022-11-24T11:13:30.217Z,80.98
2022-11-24T11:15:58.559Z,78.61
2022-11-24T11:18:33.224Z,79.66
2022-11-24T11:21:04.564Z,79.02
2022-11-24T11:23:34.750Z,78.92
2022-11-24T11:26:25.207Z,79.70
2022-11-24T11:35:04.562Z,80.67
2022-11-24T11:37:31.912Z,79.48
2022-11-24T11:39:59.379Z,78.88
2022-11-24T11:45:39.394Z,78.18
2022-11-24T11:48:14.999Z,79.33
2022-11-24T11:51:21.041Z,81.13
2022-11-24T11:53:46.252Z,82.80
2022-11-24T11:56:25.999Z,81.77
2022-11-24T11:59:14.037Z,79.22
2022-11-24T12:01:45.693Z,77.67
2022-11-24T12:04:20.784Z,78.26
2022-11-24T12:07:01.086Z,79.55
2022-11-24T12:09:44.313Z,80.95
2022-11-24T12:12:30.924Z,82.06
2022-11-24T12:14:58.791Z,83.40
2022-11-24T12:17:29.338Z,83.12
2022-11-24T12:23:46.144Z,79.54
2022-11-24T12:26:32.349Z,80.50
2022-11-24T12:29:39.118Z,81.94
2022-11-24T12:32:30.128Z,83.45
2022-11-24T12:35:30.354Z,84.96
2022-11-24T12:38:29.046Z,83.88
2022-11-24T12:41:40.532Z,82.14
2022-11-24T12:44:05.120Z,81.49
2022-11-24T12:46:43.112Z,82.05
2022-11-24T12:49:49.808Z,82.87
2022-11-24T12:52:29.752Z,84.19
2022-11-24T12:54:57.547Z,85.12
2022-11-24T12:57:41.923Z,84.47
2022-11-24T13:00:22.296Z,82.54
2022-11-24T13:03:29.348Z,83.56
2022-11-24T13:06:06.207Z,84.63
2022-11-24T13:08:34.875Z,84.68
2022-11-24T13:11:21.181Z,85.39
2022-11-24T13:14:15.149Z,86.96
2022-11-24T13:17:29.542Z,85.64
2022-11-24T13:19:46.215Z,83.16
2022-11-24T13:22:16.229Z,82.95
2022-11-24T13:24:44.918Z,83.33
2022-11-24T13:27:15.883Z,84.28
2022-11-24T13:29:44.696Z,85.03
2022-11-24T13:32:13.127Z,86.19
2022-11-24T13:34:45.550Z,86.27
2022-11-24T13:37:31.458Z,84.27
2022-11-24T13:40:17.492Z,83.83
2022-11-24T13:43:07.461Z,84.83
2022-11-24T13:45:41.433Z,85.13
2022-11-24T13:48:21.974Z,86.04
2022-11-24T13:50:50.536Z,87.71
2022-11-24T13:53:18.288Z,86.47
2022-11-24T13:55:59.367Z,85.15
2022-11-24T13:58:32.276Z,86.09
2022-11-24T14:01:02.875Z,86.29
2022-11-24T14:03:34.729Z,87.57
2022-11-24T14:06:02.629Z,88.21
2022-11-24T14:08:32.716Z,88.33
2022-11-24T14:11:01.093Z,86.25
2022-11-24T14:13:30.905Z,85.16
2022-11-24T14:16:04.972Z,85.39
2022-11-24T14:18:33.807Z,86.72
2022-11-24T14:21:16.013Z,87.54
2022-11-24T14:23:44.592Z,88.41
2022-11-24T14:26:21.735Z,87.62
2022-11-24T14:28:49.906Z,85.36
2022-11-24T14:31:25.130Z,84.03
2022-11-24T14:34:12.722Z,83.90
2022-11-24T14:36:40.803Z,84.52
2022-11-24T14:39:17.154Z,86.32
2022-11-24T14:42:04.577Z,87.55
2022-11-24T14:44:43.814Z,87.04
2022-11-24T14:47:32.870Z,85.17
2022-11-24T14:50:27.440Z,83.78
2022-11-24T14:52:56.579Z,84.52
2022-11-24T14:55:24.330Z,85.91
2022-11-24T14:57:52.230Z,86.71
2022-11-24T15:00:25.282Z,87.88
2022-11-24T15:02:55.010Z,87.48
2022-11-24T15:05:24.569Z,85.60
2022-11-24T15:08:00.894Z,84.47
2022-11-24T15:10:34.973Z,84.08
2022-11-24T15:13:04.915Z,84.76
2022-11-24T15:15:37.054Z,85.52
2022-11-24T15:18:06.076Z,86.67
2022-11-24T15:20:41.926Z,86.74
2022-11-24T15:23:25.158Z,84.84
2022-11-24T15:26:13.476Z,83.99
2022-11-24T15:28:41.336Z,84.47
2022-11-24T15:31:10.173Z,85.44
2022-11-24T15:33:37.889Z,86.25
2022-11-24T15:36:06.477Z,87.48
2022-11-24T15:38:34.235Z,87.32
2022-11-24T15:41:02.221Z,85.36
2022-11-24T15:43:36.855Z,84.55
2022-11-24T15:46:04.808Z,85.14
2022-11-24T15:48:32.769Z,86.01
2022-11-24T15:51:02.653Z,87.95
2022-11-24T15:53:34.870Z,89.40
2022-11-24T15:56:03.683Z,88.82
2022-11-24T15:58:31.606Z,86.60
2022-11-24T16:00:59.436Z,85.02
2022-11-24T16:06:24.787Z,87.49
2022-11-24T16:08:54.356Z,87.97
2022-11-24T16:11:22.492Z,88.97
2022-11-24T16:13:53.748Z,88.94
2022-11-24T16:16:22.958Z,87.27
2022-11-24T16:18:50.707Z,87.07
2022-11-24T16:21:18.547Z,86.66
2022-11-24T16:23:47.549Z,86.70
2022-11-24T16:26:16.123Z,87.56
2022-11-24T16:28:45.530Z,88.68
2022-11-24T16:31:15.312Z,88.44
2022-11-24T16:33:47.000Z,86.28
2022-11-24T16:36:14.969Z,85.46
2022-11-24T16:38:43.037Z,85.93
2022-11-24T16:41:14.071Z,87.29
2022-11-24T16:43:42.154Z,88.15
2022-11-24T16:46:21.394Z,88.79
2022-11-24T16:48:53.570Z,88.71
2022-11-24T16:51:22.445Z,86.88
2022-11-24T16:53:57.194Z,86.82
2022-11-24T16:56:25.850Z,86.35
2022-11-24T16:58:53.760Z,86.28
2022-11-24T17:01:21.863Z,87.04
2022-11-24T17:03:50.065Z,88.06
2022-11-24T17:06:17.837Z,87.30
2022-11-24T17:08:48.073Z,85.03
2022-11-24T17:11:20.782Z,83.97
2022-11-24T17:13:50.743Z,84.65
2022-11-24T17:16:20.594Z,85.87
2022-11-24T17:18:49.150Z,86.71
2022-11-24T17:21:21.722Z,88.28
2022-11-24T17:23:55.216Z,88.48
2022-11-24T17:26:23.515Z,86.77
2022-11-24T17:28:51.260Z,86.05
2022-11-24T17:31:24.896Z,85.92
2022-11-24T17:33:54.252Z,86.10
2022-11-24T17:36:22.330Z,86.67
2022-11-24T17:38:50.806Z,87.14
2022-11-24T17:41:19.387Z,87.12
2022-11-24T17:43:51.763Z,85.62
2022-11-24T17:46:25.203Z,84.08
2022-11-24T17:48:53.338Z,84.24
2022-11-24T17:51:23.032Z,85.29
2022-11-24T17:53:52.033Z,86.62
2022-11-24T17:56:24.802Z,87.51
2022-11-24T17:58:54.032Z,87.02
2022-11-24T18:01:25.757Z,84.68
2022-11-24T18:03:55.930Z,83.88
2022-11-24T18:06:28.364Z,84.29
2022-11-24T18:08:56.844Z,85.56
2022-11-24T18:11:31.326Z,86.60
2022-11-24T18:14:02.389Z,88.18
2022-11-24T18:16:31.901Z,87.61
2022-11-24T18:19:08.265Z,85.37
2022-11-24T18:21:38.711Z,84.31
2022-11-24T18:24:07.671Z,84.50
2022-11-24T18:26:35.252Z,85.52
2022-11-24T18:29:03.428Z,87.01
2022-11-24T18:31:32.171Z,88.76
2022-11-24T18:33:59.980Z,88.33
2022-11-24T18:36:30.633Z,86.93
2022-11-24T18:39:06.295Z,86.94
2022-11-24T18:41:34.023Z,87.30
2022-11-24T18:44:02.816Z,88.32
2022-11-24T18:46:30.605Z,89.37
2022-11-24T18:48:59.053Z,89.22
2022-11-24T18:51:26.929Z,87.54
2022-11-24T18:53:55.099Z,85.39
2022-11-24T18:56:22.652Z,84.42
2022-11-24T18:58:53.982Z,84.52
2022-11-24T19:01:24.307Z,85.47
2022-11-24T19:03:53.523Z,86.84
2022-11-24T19:06:31.736Z,88.28
2022-11-24T19:09:01.058Z,86.95
2022-11-24T19:11:33.927Z,85.68
2022-11-24T19:14:02.396Z,85.75
2022-11-24T19:16:31.987Z,86.38
2022-11-24T19:19:01.514Z,87.04
2022-11-24T19:21:36.836Z,88.32
2022-11-24T19:24:05.957Z,89.20
2022-11-24T19:26:37.201Z,88.13
2022-11-24T19:29:05.471Z,85.65
2022-11-24T19:31:33.699Z,84.23
2022-11-24T19:34:02.760Z,84.01
2022-11-24T19:36:31.625Z,84.59
2022-11-24T19:38:59.388Z,85.14
2022-11-24T19:41:30.024Z,85.45
2022-11-24T19:43:58.524Z,86.14
2022-11-24T19:46:27.223Z,86.17
2022-11-24T19:48:56.575Z,85.14
2022-11-24T19:51:34.804Z,84.41
2022-11-24T19:54:02.971Z,83.89
2022-11-24T19:56:34.549Z,84.74
2022-11-24T19:59:03.887Z,86.04
2022-11-24T20:01:33.231Z,86.94
2022-11-24T20:04:07.540Z,88.14
2022-11-24T20:06:37.049Z,87.96
2022-11-24T20:09:07.732Z,86.46
2022-11-24T20:11:35.341Z,85.74
2022-11-24T20:14:03.413Z,85.87
2022-11-24T20:16:33.291Z,86.43
2022-11-24T20:19:05.398Z,87.34
2022-11-24T20:21:34.281Z,88.06
2022-11-24T20:24:09.158Z,88.44
2022-11-24T20:26:38.612Z,86.30
2022-11-24T20:29:06.377Z,85.90
2022-11-24T20:31:38.067Z,86.28
2022-11-24T20:34:06.048Z,86.42
2022-11-24T20:36:34.385Z,86.67
2022-11-24T20:39:07.162Z,87.59
2022-11-24T20:41:37.279Z,88.43
2022-11-24T20:44:10.153Z,88.08
2022-11-24T20:46:38.341Z,86.26
2022-11-24T20:49:08.685Z,85.20
2022-11-24T20:51:37.348Z,85.62
2022-11-24T20:54:10.399Z,86.67
2022-11-24T20:56:42.703Z,88.42
2022-11-24T20:59:19.173Z,89.48
2022-11-24T21:01:46.738Z,89.19
2022-11-24T21:04:16.748Z,87.36
2022-11-24T21:06:44.206Z,86.36
2022-11-24T21:09:11.974Z,86.73
2022-11-24T21:11:39.731Z,87.22
2022-11-24T21:14:07.606Z,88.20
2022-11-24T21:16:36.713Z,89.03
2022-11-24T21:19:06.504Z,88.23
2022-11-24T21:21:35.500Z,86.70
2022-11-24T21:24:13.546Z,85.58
2022-11-24T21:26:41.578Z,85.81
2022-11-24T21:29:13.786Z,86.29
2022-11-24T21:31:41.408Z,87.53
2022-11-24T21:34:09.474Z,89.09
2022-11-24T21:36:41.684Z,89.40
2022-11-24T21:39:10.064Z,87.77
2022-11-24T21:41:39.934Z,86.79
2022-11-24T21:44:07.494Z,87.09
2022-11-24T21:46:43.604Z,87.78
2022-11-24T21:49:13.776Z,88.82
2022-11-24T21:51:41.332Z,89.47
2022-11-24T21:54:09.014Z,88.92
2022-11-24T21:56:37.582Z,87.62
2022-11-24T21:59:05.446Z,87.19
2022-11-24T22:01:33.042Z,87.60
2022-11-24T22:04:01.078Z,88.78
2022-11-24T22:06:28.631Z,89.34
2022-11-24T22:08:56.395Z,89.14
2022-11-24T22:11:24.671Z,87.71
2022-11-24T22:13:53.578Z,86.57
2022-11-24T22:16:23.460Z,86.98
2022-11-24T22:18:51.649Z,87.57
2022-11-24T22:21:23.845Z,88.81
2022-11-24T22:23:54.552Z,89.78
2022-11-24T22:26:23.956Z,89.25
2022-11-24T22:28:52.021Z,87.18
2022-11-24T22:31:22.076Z,85.76
2022-11-24T22:33:50.213Z,85.80
2022-11-24T22:36:20.487Z,86.88
2022-11-24T22:38:48.302Z,87.89
2022-11-24T22:41:17.339Z,88.50
2022-11-24T22:43:45.573Z,87.99
2022-11-24T22:46:15.119Z,86.04
2022-11-24T22:48:43.247Z,85.21
2022-11-24T22:51:12.650Z,84.98
2022-11-24T22:53:40.314Z,86.23
2022-11-24T22:56:09.618Z,87.12
2022-11-24T22:58:37.651Z,87.96
2022-11-24T23:01:09.045Z,87.64
2022-11-24T23:03:37.164Z,85.61
2022-11-24T23:06:10.356Z,85.16
2022-11-24T23:08:39.182Z,85.99
2022-11-24T23:11:20.771Z,87.00
2022-11-24T23:13:52.901Z,88.30
2022-11-24T23:16:20.370Z,88.96
2022-11-24T23:18:53.578Z,88.00
2022-11-24T23:21:23.957Z,86.43
2022-11-24T23:23:51.876Z,85.38
2022-11-24T23:26:24.458Z,86.28
2022-11-24T23:28:52.265Z,87.74
2022-11-24T23:31:23.852Z,88.99
2022-11-24T23:33:52.352Z,89.20
2022-11-24T23:36:20.526Z,87.46
2022-11-24T23:38:51.569Z,86.41
2022-11-24T23:41:21.079Z,87.55
2022-11-24T23:43:50.067Z,88.72
2022-11-24T23:46:21.337Z,89.73
2022-11-24T23:48:49.893Z,90.21
2022-11-24T23:51:27.696Z,89.80
2022-11-24T23:53:55.386Z,87.43
2022-11-24T23:56:27.938Z,86.69
2022-11-24T23:58:55.387Z,86.90
